sensor_id;sensor_type;location;lat;lon;timestamp;temperature;humidity
65291;SHT30;51893;59.754;10.110;2023-04-25T00:01:22;3.43;85.07
65291;SHT30;51893;59.754;10.110;2023-04-25T00:03:50;3.41;84.90
65291;SHT30;51893;59.754;10.110;2023-04-25T00:06:19;3.35;85.04
65291;SHT30;51893;59.754;10.110;2023-04-25T00:08:48;3.35;85.04
65291;SHT30;51893;59.754;10.110;2023-04-25T00:11:18;3.38;85.04
65291;SHT30;51893;59.754;10.110;2023-04-25T00:13:48;3.41;85.16
65291;SHT30;51893;59.754;10.110;2023-04-25T00:16:18;3.45;84.99
65291;SHT30;51893;59.754;10.110;2023-04-25T00:18:49;3.48;84.72
65291;SHT30;51893;59.754;10.110;2023-04-25T00:21:19;3.49;84.69
65291;SHT30;51893;59.754;10.110;2023-04-25T00:23:48;3.45;84.60
65291;SHT30;51893;59.754;10.110;2023-04-25T00:26:16;3.47;84.70
65291;SHT30;51893;59.754;10.110;2023-04-25T00:28:44;3.49;84.86
65291;SHT30;51893;59.754;10.110;2023-04-25T00:31:13;3.50;84.63
65291;SHT30;51893;59.754;10.110;2023-04-25T00:33:43;3.54;84.66
65291;SHT30;51893;59.754;10.110;2023-04-25T00:36:14;3.56;84.59
65291;SHT30;51893;59.754;10.110;2023-04-25T00:38:45;3.57;84.38
65291;SHT30;51893;59.754;10.110;2023-04-25T00:41:16;3.59;84.45
65291;SHT30;51893;59.754;10.110;2023-04-25T00:43:44;3.58;84.25
65291;SHT30;51893;59.754;10.110;2023-04-25T00:46:15;3.58;84.23
65291;SHT30;51893;59.754;10.110;2023-04-25T00:48:44;3.58;84.23
65291;SHT30;51893;59.754;10.110;2023-04-25T00:51:16;3.62;84.26
65291;SHT30;51893;59.754;10.110;2023-04-25T00:53:51;3.63;84.20
65291;SHT30;51893;59.754;10.110;2023-04-25T00:56:19;3.63;84.03
65291;SHT30;51893;59.754;10.110;2023-04-25T00:58:48;3.62;84.08
65291;SHT30;51893;59.754;10.110;2023-04-25T01:01:20;3.66;84.08
65291;SHT30;51893;59.754;10.110;2023-04-25T01:03:50;3.67;84.02
65291;SHT30;51893;59.754;10.110;2023-04-25T01:06:21;3.66;83.96
65291;SHT30;51893;59.754;10.110;2023-04-25T01:08:50;3.68;84.00
65291;SHT30;51893;59.754;10.110;2023-04-25T01:11:19;3.68;84.05
65291;SHT30;51893;59.754;10.110;2023-04-25T01:13:48;3.68;84.08
65291;SHT30;51893;59.754;10.110;2023-04-25T01:16:17;3.67;83.91
65291;SHT30;51893;59.754;10.110;2023-04-25T01:18:47;3.72;83.85
65291;SHT30;51893;59.754;10.110;2023-04-25T01:21:16;3.75;83.90
65291;SHT30;51893;59.754;10.110;2023-04-25T01:23:45;3.71;83.77
65291;SHT30;51893;59.754;10.110;2023-04-25T01:26:15;3.70;84.06
65291;SHT30;51893;59.754;10.110;2023-04-25T01:28:43;3.67;84.12
65291;SHT30;51893;59.754;10.110;2023-04-25T01:31:13;3.70;83.95
65291;SHT30;51893;59.754;10.110;2023-04-25T01:33:43;3.72;83.98
65291;SHT30;51893;59.754;10.110;2023-04-25T01:36:12;3.69;83.75
65291;SHT30;51893;59.754;10.110;2023-04-25T01:38:44;3.72;83.72
65291;SHT30;51893;59.754;10.110;2023-04-25T01:41:14;3.64;83.60
65291;SHT30;51893;59.754;10.110;2023-04-25T01:43:45;3.58;83.67
65291;SHT30;51893;59.754;10.110;2023-04-25T01:46:13;3.54;83.92
65291;SHT30;51893;59.754;10.110;2023-04-25T01:48:42;3.51;84.09
65291;SHT30;51893;59.754;10.110;2023-04-25T01:51:10;3.52;84.19
65291;SHT30;51893;59.754;10.110;2023-04-25T01:53:39;3.52;84.23
65291;SHT30;51893;59.754;10.110;2023-04-25T01:56:07;3.49;84.21
65291;SHT30;51893;59.754;10.110;2023-04-25T01:58:35;3.45;84.35
65291;SHT30;51893;59.754;10.110;2023-04-25T02:01:03;3.46;84.26
65291;SHT30;51893;59.754;10.110;2023-04-25T02:03:32;3.46;84.27
65291;SHT30;51893;59.754;10.110;2023-04-25T02:06:02;3.48;84.52
65291;SHT30;51893;59.754;10.110;2023-04-25T02:08:30;3.50;84.61
65291;SHT30;51893;59.754;10.110;2023-04-25T02:10:58;3.45;84.62
65291;SHT30;51893;59.754;10.110;2023-04-25T02:13:27;3.46;84.62
65291;SHT30;51893;59.754;10.110;2023-04-25T02:15:55;3.42;84.35
65291;SHT30;51893;59.754;10.110;2023-04-25T02:18:24;3.41;84.36
65291;SHT30;51893;59.754;10.110;2023-04-25T02:20:54;3.36;84.41
65291;SHT30;51893;59.754;10.110;2023-04-25T02:23:22;3.36;84.57
65291;SHT30;51893;59.754;10.110;2023-04-25T02:25:49;3.38;84.61
65291;SHT30;51893;59.754;10.110;2023-04-25T02:28:18;3.39;84.60
65291;SHT30;51893;59.754;10.110;2023-04-25T02:30:46;3.34;84.74
65291;SHT30;51893;59.754;10.110;2023-04-25T02:33:14;3.28;84.90
65291;SHT30;51893;59.754;10.110;2023-04-25T02:35:44;3.29;85.03
65291;SHT30;51893;59.754;10.110;2023-04-25T02:38:15;3.34;85.09
65291;SHT30;51893;59.754;10.110;2023-04-25T02:40:43;3.34;85.14
65291;SHT30;51893;59.754;10.110;2023-04-25T02:43:12;3.30;85.04
65291;SHT30;51893;59.754;10.110;2023-04-25T02:45:39;3.27;85.00
65291;SHT30;51893;59.754;10.110;2023-04-25T02:48:13;3.27;85.05
65291;SHT30;51893;59.754;10.110;2023-04-25T02:50:42;3.26;85.00
65291;SHT30;51893;59.754;10.110;2023-04-25T02:53:11;3.29;85.00
65291;SHT30;51893;59.754;10.110;2023-04-25T02:55:39;3.34;85.00
65291;SHT30;51893;59.754;10.110;2023-04-25T02:58:07;3.38;85.10
65291;SHT30;51893;59.754;10.110;2023-04-25T03:00:35;3.41;85.01
65291;SHT30;51893;59.754;10.110;2023-04-25T03:03:05;3.41;85.01
65291;SHT30;51893;59.754;10.110;2023-04-25T03:05:33;3.41;84.93
65291;SHT30;51893;59.754;10.110;2023-04-25T03:08:01;3.40;84.89
65291;SHT30;51893;59.754;10.110;2023-04-25T03:10:30;3.35;84.82
65291;SHT30;51893;59.754;10.110;2023-04-25T03:12:58;3.33;84.83
65291;SHT30;51893;59.754;10.110;2023-04-25T03:15:27;3.30;84.84
65291;SHT30;51893;59.754;10.110;2023-04-25T03:17:55;3.26;84.81
65291;SHT30;51893;59.754;10.110;2023-04-25T03:20:23;3.28;84.82
65291;SHT30;51893;59.754;10.110;2023-04-25T03:22:51;3.26;84.74
65291;SHT30;51893;59.754;10.110;2023-04-25T03:25:23;3.22;84.80
65291;SHT30;51893;59.754;10.110;2023-04-25T03:27:51;3.19;84.94
65291;SHT30;51893;59.754;10.110;2023-04-25T03:30:24;3.20;85.08
65291;SHT30;51893;59.754;10.110;2023-04-25T03:32:52;3.14;85.12
65291;SHT30;51893;59.754;10.110;2023-04-25T03:35:23;3.13;85.27
65291;SHT30;51893;59.754;10.110;2023-04-25T03:37:52;3.16;85.37
65291;SHT30;51893;59.754;10.110;2023-04-25T03:40:20;3.18;85.54
65291;SHT30;51893;59.754;10.110;2023-04-25T03:42:48;3.17;85.60
65291;SHT30;51893;59.754;10.110;2023-04-25T03:45:16;3.19;85.58
65291;SHT30;51893;59.754;10.110;2023-04-25T03:47:44;3.14;85.50
65291;SHT30;51893;59.754;10.110;2023-04-25T03:50:12;3.18;85.60
65291;SHT30;51893;59.754;10.110;2023-04-25T03:52:43;3.20;85.51
65291;SHT30;51893;59.754;10.110;2023-04-25T03:55:11;3.18;85.50
65291;SHT30;51893;59.754;10.110;2023-04-25T03:57:39;3.15;85.51
65291;SHT30;51893;59.754;10.110;2023-04-25T04:00:08;3.16;85.51
65291;SHT30;51893;59.754;10.110;2023-04-25T04:02:37;3.08;85.53
65291;SHT30;51893;59.754;10.110;2023-04-25T04:05:08;3.04;85.74
65291;SHT30;51893;59.754;10.110;2023-04-25T04:07:36;3.03;85.74
65291;SHT30;51893;59.754;10.110;2023-04-25T04:10:08;3.04;85.77
65291;SHT30;51893;59.754;10.110;2023-04-25T04:12:38;2.97;85.79
65291;SHT30;51893;59.754;10.110;2023-04-25T04:15:07;3.01;85.89
65291;SHT30;51893;59.754;10.110;2023-04-25T04:17:37;3.02;85.73
65291;SHT30;51893;59.754;10.110;2023-04-25T04:20:06;3.04;85.60
65291;SHT30;51893;59.754;10.110;2023-04-25T04:22:35;3.07;85.39
65291;SHT30;51893;59.754;10.110;2023-04-25T04:25:04;3.10;85.25
65291;SHT30;51893;59.754;10.110;2023-04-25T04:27:33;3.10;85.06
65291;SHT30;51893;59.754;10.110;2023-04-25T04:30:01;3.07;84.90
65291;SHT30;51893;59.754;10.110;2023-04-25T04:32:30;3.07;84.90
65291;SHT30;51893;59.754;10.110;2023-04-25T04:35:02;3.09;84.98
65291;SHT30;51893;59.754;10.110;2023-04-25T04:37:31;3.07;85.22
65291;SHT30;51893;59.754;10.110;2023-04-25T04:39:59;3.09;85.34
65291;SHT30;51893;59.754;10.110;2023-04-25T04:42:29;3.12;85.33
65291;SHT30;51893;59.754;10.110;2023-04-25T04:44:59;3.11;84.99
65291;SHT30;51893;59.754;10.110;2023-04-25T04:47:29;3.06;85.06
65291;SHT30;51893;59.754;10.110;2023-04-25T04:50:01;3.09;85.29
65291;SHT30;51893;59.754;10.110;2023-04-25T04:52:30;3.09;85.30
65291;SHT30;51893;59.754;10.110;2023-04-25T04:54:59;3.15;85.22
65291;SHT30;51893;59.754;10.110;2023-04-25T04:57:28;3.15;85.18
65291;SHT30;51893;59.754;10.110;2023-04-25T04:59:58;3.05;85.33
65291;SHT30;51893;59.754;10.110;2023-04-25T05:02:28;2.93;85.57
65291;SHT30;51893;59.754;10.110;2023-04-25T05:05:05;2.89;85.87
65291;SHT30;51893;59.754;10.110;2023-04-25T05:07:36;2.87;86.00
65291;SHT30;51893;59.754;10.110;2023-04-25T05:10:04;2.89;86.09
65291;SHT30;51893;59.754;10.110;2023-04-25T05:12:37;2.92;86.14
65291;SHT30;51893;59.754;10.110;2023-04-25T05:15:05;2.94;86.19
65291;SHT30;51893;59.754;10.110;2023-04-25T05:17:35;2.98;86.20
65291;SHT30;51893;59.754;10.110;2023-04-25T05:20:03;2.99;86.18
65291;SHT30;51893;59.754;10.110;2023-04-25T05:22:38;3.02;86.19
65291;SHT30;51893;59.754;10.110;2023-04-25T05:25:09;2.99;86.10
65291;SHT30;51893;59.754;10.110;2023-04-25T05:27:37;2.90;86.03
65291;SHT30;51893;59.754;10.110;2023-04-25T05:30:06;2.87;86.19
65291;SHT30;51893;59.754;10.110;2023-04-25T05:32:37;2.86;86.21
65291;SHT30;51893;59.754;10.110;2023-04-25T05:35:06;2.89;86.31
65291;SHT30;51893;59.754;10.110;2023-04-25T05:37:35;2.90;86.43
65291;SHT30;51893;59.754;10.110;2023-04-25T05:40:03;2.94;86.50
65291;SHT30;51893;59.754;10.110;2023-04-25T05:42:34;3.01;86.46
65291;SHT30;51893;59.754;10.110;2023-04-25T05:45:02;3.02;86.33
65291;SHT30;51893;59.754;10.110;2023-04-25T05:47:32;3.01;86.54
65291;SHT30;51893;59.754;10.110;2023-04-25T05:50:01;3.09;86.59
65291;SHT30;51893;59.754;10.110;2023-04-25T05:52:29;3.07;86.58
65291;SHT30;51893;59.754;10.110;2023-04-25T05:54:57;3.07;86.74
65291;SHT30;51893;59.754;10.110;2023-04-25T05:57:26;3.13;86.77
65291;SHT30;51893;59.754;10.110;2023-04-25T05:59:55;3.19;86.71
65291;SHT30;51893;59.754;10.110;2023-04-25T06:02:23;3.30;86.53
65291;SHT30;51893;59.754;10.110;2023-04-25T06:04:52;3.30;86.31
65291;SHT30;51893;59.754;10.110;2023-04-25T06:07:24;3.27;86.34
65291;SHT30;51893;59.754;10.110;2023-04-25T06:09:52;3.29;86.48
65291;SHT30;51893;59.754;10.110;2023-04-25T06:12:21;3.27;86.50
65291;SHT30;51893;59.754;10.110;2023-04-25T06:14:49;3.22;86.63
65291;SHT30;51893;59.754;10.110;2023-04-25T06:17:19;3.20;86.63
65291;SHT30;51893;59.754;10.110;2023-04-25T06:19:47;3.14;86.61
65291;SHT30;51893;59.754;10.110;2023-04-25T06:22:16;3.19;86.72
65291;SHT30;51893;59.754;10.110;2023-04-25T06:24:47;3.25;86.86
65291;SHT30;51893;59.754;10.110;2023-04-25T06:27:16;3.33;86.91
65291;SHT30;51893;59.754;10.110;2023-04-25T06:29:44;3.34;86.89
65291;SHT30;51893;59.754;10.110;2023-04-25T06:32:14;3.33;86.63
65291;SHT30;51893;59.754;10.110;2023-04-25T06:34:44;3.36;86.47
65291;SHT30;51893;59.754;10.110;2023-04-25T06:37:11;3.42;86.46
65291;SHT30;51893;59.754;10.110;2023-04-25T06:39:43;3.47;86.44
65291;SHT30;51893;59.754;10.110;2023-04-25T06:42:11;3.49;86.13
65291;SHT30;51893;59.754;10.110;2023-04-25T06:44:39;3.55;86.02
65291;SHT30;51893;59.754;10.110;2023-04-25T06:47:07;3.62;85.90
65291;SHT30;51893;59.754;10.110;2023-04-25T06:49:36;3.65;85.80
65291;SHT30;51893;59.754;10.110;2023-04-25T06:52:04;3.70;85.37
65291;SHT30;51893;59.754;10.110;2023-04-25T06:54:32;3.69;85.14
65291;SHT30;51893;59.754;10.110;2023-04-25T06:57:01;3.71;84.58
65291;SHT30;51893;59.754;10.110;2023-04-25T06:59:30;3.75;84.10
65291;SHT30;51893;59.754;10.110;2023-04-25T07:02:01;3.78;83.79
65291;SHT30;51893;59.754;10.110;2023-04-25T07:04:33;3.83;83.74
65291;SHT30;51893;59.754;10.110;2023-04-25T07:07:02;3.84;83.54
65291;SHT30;51893;59.754;10.110;2023-04-25T07:09:31;3.85;83.33
65291;SHT30;51893;59.754;10.110;2023-04-25T07:12:03;3.89;83.15
65291;SHT30;51893;59.754;10.110;2023-04-25T07:14:32;3.88;82.80
65291;SHT30;51893;59.754;10.110;2023-04-25T07:17:01;3.88;82.32
65291;SHT30;51893;59.754;10.110;2023-04-25T07:19:31;3.85;81.86
65291;SHT30;51893;59.754;10.110;2023-04-25T07:22:01;3.86;82.49
65291;SHT30;51893;59.754;10.110;2023-04-25T07:24:29;3.85;82.34
65291;SHT30;51893;59.754;10.110;2023-04-25T07:26:57;3.89;82.21
65291;SHT30;51893;59.754;10.110;2023-04-25T07:29:25;3.89;81.91
65291;SHT30;51893;59.754;10.110;2023-04-25T07:31:57;3.86;82.08
65291;SHT30;51893;59.754;10.110;2023-04-25T07:34:29;3.85;82.69
65291;SHT30;51893;59.754;10.110;2023-04-25T07:36:58;3.83;82.70
65291;SHT30;51893;59.754;10.110;2023-04-25T07:39:27;3.79;82.67
65291;SHT30;51893;59.754;10.110;2023-04-25T07:41:56;3.79;82.63
65291;SHT30;51893;59.754;10.110;2023-04-25T07:44:27;3.80;82.31
65291;SHT30;51893;59.754;10.110;2023-04-25T07:46:55;3.81;82.55
65291;SHT30;51893;59.754;10.110;2023-04-25T07:49:23;3.84;83.16
65291;SHT30;51893;59.754;10.110;2023-04-25T07:51:51;3.77;83.58
65291;SHT30;51893;59.754;10.110;2023-04-25T07:54:19;3.72;84.13
65291;SHT30;51893;59.754;10.110;2023-04-25T07:56:47;3.70;84.42
65291;SHT30;51893;59.754;10.110;2023-04-25T07:59:20;3.67;84.49
65291;SHT30;51893;59.754;10.110;2023-04-25T08:01:50;3.67;84.32
65291;SHT30;51893;59.754;10.110;2023-04-25T08:04:18;3.69;84.20
65291;SHT30;51893;59.754;10.110;2023-04-25T08:06:46;3.65;83.89
65291;SHT30;51893;59.754;10.110;2023-04-25T08:09:15;3.60;83.54
65291;SHT30;51893;59.754;10.110;2023-04-25T08:11:45;3.58;83.28
65291;SHT30;51893;59.754;10.110;2023-04-25T08:14:14;3.56;83.22
65291;SHT30;51893;59.754;10.110;2023-04-25T08:16:42;3.56;83.52
65291;SHT30;51893;59.754;10.110;2023-04-25T08:19:10;3.58;83.53
65291;SHT30;51893;59.754;10.110;2023-04-25T08:21:38;3.59;83.27
65291;SHT30;51893;59.754;10.110;2023-04-25T08:24:07;3.57;83.27
65291;SHT30;51893;59.754;10.110;2023-04-25T08:26:37;3.51;83.34
65291;SHT30;51893;59.754;10.110;2023-04-25T08:29:08;3.44;82.96
65291;SHT30;51893;59.754;10.110;2023-04-25T08:31:37;3.49;83.46
65291;SHT30;51893;59.754;10.110;2023-04-25T08:34:05;3.52;83.73
65291;SHT30;51893;59.754;10.110;2023-04-25T08:36:33;3.50;83.55
65291;SHT30;51893;59.754;10.110;2023-04-25T08:39:06;3.52;83.76
65291;SHT30;51893;59.754;10.110;2023-04-25T08:41:36;3.53;83.68
65291;SHT30;51893;59.754;10.110;2023-04-25T08:44:05;3.57;83.61
65291;SHT30;51893;59.754;10.110;2023-04-25T08:46:38;3.60;83.65
65291;SHT30;51893;59.754;10.110;2023-04-25T08:49:12;3.68;83.66
65291;SHT30;51893;59.754;10.110;2023-04-25T08:51:44;3.79;83.62
65291;SHT30;51893;59.754;10.110;2023-04-25T08:54:14;3.87;83.50
65291;SHT30;51893;59.754;10.110;2023-04-25T08:57:01;3.96;83.35
65291;SHT30;51893;59.754;10.110;2023-04-25T08:59:32;3.98;82.68
65291;SHT30;51893;59.754;10.110;2023-04-25T09:02:07;4.07;83.20
65291;SHT30;51893;59.754;10.110;2023-04-25T09:04:39;4.16;83.28
65291;SHT30;51893;59.754;10.110;2023-04-25T09:07:08;4.21;82.53
65291;SHT30;51893;59.754;10.110;2023-04-25T09:09:40;4.19;82.03
65291;SHT30;51893;59.754;10.110;2023-04-25T09:12:10;4.23;82.23
65291;SHT30;51893;59.754;10.110;2023-04-25T09:14:38;4.24;81.93
65291;SHT30;51893;59.754;10.110;2023-04-25T09:17:11;4.22;81.81
65291;SHT30;51893;59.754;10.110;2023-04-25T09:19:40;4.27;81.45
65291;SHT30;51893;59.754;10.110;2023-04-25T09:22:12;4.28;80.81
65291;SHT30;51893;59.754;10.110;2023-04-25T09:24:44;4.38;81.23
65291;SHT30;51893;59.754;10.110;2023-04-25T09:27:17;4.40;80.86
65291;SHT30;51893;59.754;10.110;2023-04-25T09:30:02;4.39;80.50
65291;SHT30;51893;59.754;10.110;2023-04-25T09:32:31;4.42;80.97
65291;SHT30;51893;59.754;10.110;2023-04-25T09:35:00;4.46;81.11
65291;SHT30;51893;59.754;10.110;2023-04-25T09:37:30;4.51;81.02
65291;SHT30;51893;59.754;10.110;2023-04-25T09:39:59;4.54;81.27
65291;SHT30;51893;59.754;10.110;2023-04-25T09:42:35;4.59;81.14
65291;SHT30;51893;59.754;10.110;2023-04-25T09:45:06;4.53;79.67
65291;SHT30;51893;59.754;10.110;2023-04-25T09:47:36;4.47;79.42
65291;SHT30;51893;59.754;10.110;2023-04-25T09:50:13;4.42;79.59
65291;SHT30;51893;59.754;10.110;2023-04-25T09:52:44;4.45;79.79
65291;SHT30;51893;59.754;10.110;2023-04-25T09:55:12;4.44;79.65
65291;SHT30;51893;59.754;10.110;2023-04-25T09:57:40;4.45;79.81
65291;SHT30;51893;59.754;10.110;2023-04-25T10:00:17;4.49;79.55
65291;SHT30;51893;59.754;10.110;2023-04-25T10:02:47;4.54;79.74
65291;SHT30;51893;59.754;10.110;2023-04-25T10:05:18;4.54;79.18
65291;SHT30;51893;59.754;10.110;2023-04-25T10:07:46;4.56;79.24
65291;SHT30;51893;59.754;10.110;2023-04-25T10:10:16;4.67;79.74
65291;SHT30;51893;59.754;10.110;2023-04-25T10:12:49;4.68;79.62
65291;SHT30;51893;59.754;10.110;2023-04-25T10:15:22;4.71;79.73
65291;SHT30;51893;59.754;10.110;2023-04-25T10:17:52;4.74;79.11
65291;SHT30;51893;59.754;10.110;2023-04-25T10:20:21;4.76;78.54
65291;SHT30;51893;59.754;10.110;2023-04-25T10:22:50;4.75;78.41
65291;SHT30;51893;59.754;10.110;2023-04-25T10:25:24;4.82;78.64
65291;SHT30;51893;59.754;10.110;2023-04-25T10:27:53;4.79;77.60
65291;SHT30;51893;59.754;10.110;2023-04-25T10:30:25;4.78;78.00
65291;SHT30;51893;59.754;10.110;2023-04-25T10:32:54;4.80;78.15
65291;SHT30;51893;59.754;10.110;2023-04-25T10:35:24;4.82;77.40
65291;SHT30;51893;59.754;10.110;2023-04-25T10:37:58;4.89;77.99
65291;SHT30;51893;59.754;10.110;2023-04-25T10:40:34;4.95;78.19
65291;SHT30;51893;59.754;10.110;2023-04-25T10:46:23;5.02;78.23
65291;SHT30;51893;59.754;10.110;2023-04-25T10:49:02;5.07;77.36
65291;SHT30;51893;59.754;10.110;2023-04-25T10:51:32;5.13;77.58
65291;SHT30;51893;59.754;10.110;2023-04-25T10:54:21;5.14;76.45
65291;SHT30;51893;59.754;10.110;2023-04-25T10:56:53;5.15;76.40
65291;SHT30;51893;59.754;10.110;2023-04-25T10:59:22;5.23;76.82
65291;SHT30;51893;59.754;10.110;2023-04-25T11:01:53;5.35;77.33
65291;SHT30;51893;59.754;10.110;2023-04-25T11:04:31;5.39;76.99
65291;SHT30;51893;59.754;10.110;2023-04-25T11:07:26;5.41;76.13
65291;SHT30;51893;59.754;10.110;2023-04-25T11:10:34;5.40;76.90
65291;SHT30;51893;59.754;10.110;2023-04-25T11:13:07;5.34;75.35
65291;SHT30;51893;59.754;10.110;2023-04-25T11:15:36;5.36;76.11
65291;SHT30;51893;59.754;10.110;2023-04-25T11:18:04;5.36;75.61
65291;SHT30;51893;59.754;10.110;2023-04-25T11:20:32;5.35;75.52
65291;SHT30;51893;59.754;10.110;2023-04-25T11:23:00;5.41;75.83
65291;SHT30;51893;59.754;10.110;2023-04-25T11:25:30;5.38;75.39
65291;SHT30;51893;59.754;10.110;2023-04-25T11:28:00;5.42;76.24
65291;SHT30;51893;59.754;10.110;2023-04-25T11:30:30;5.45;75.44
65291;SHT30;51893;59.754;10.110;2023-04-25T11:33:02;5.47;75.48
65291;SHT30;51893;59.754;10.110;2023-04-25T11:35:31;5.45;75.02
65291;SHT30;51893;59.754;10.110;2023-04-25T11:37:59;5.44;75.17
65291;SHT30;51893;59.754;10.110;2023-04-25T11:40:29;5.49;75.38
65291;SHT30;51893;59.754;10.110;2023-04-25T11:43:00;5.52;75.35
65291;SHT30;51893;59.754;10.110;2023-04-25T11:45:29;5.61;75.91
65291;SHT30;51893;59.754;10.110;2023-04-25T11:47:59;5.67;75.56
65291;SHT30;51893;59.754;10.110;2023-04-25T11:50:32;5.71;75.57
65291;SHT30;51893;59.754;10.110;2023-04-25T11:53:02;5.71;75.29
65291;SHT30;51893;59.754;10.110;2023-04-25T11:55:33;5.67;74.39
65291;SHT30;51893;59.754;10.110;2023-04-25T11:58:02;5.65;73.30
65291;SHT30;51893;59.754;10.110;2023-04-25T12:00:33;5.55;72.68
65291;SHT30;51893;59.754;10.110;2023-04-25T12:03:01;5.53;72.99
65291;SHT30;51893;59.754;10.110;2023-04-25T12:05:31;5.56;73.53
65291;SHT30;51893;59.754;10.110;2023-04-25T12:08:15;5.70;74.46
65291;SHT30;51893;59.754;10.110;2023-04-25T12:10:45;5.81;73.44
65291;SHT30;51893;59.754;10.110;2023-04-25T12:13:32;5.83;72.71
65291;SHT30;51893;59.754;10.110;2023-04-25T12:16:01;5.96;73.86
65291;SHT30;51893;59.754;10.110;2023-04-25T12:18:29;6.10;73.99
65291;SHT30;51893;59.754;10.110;2023-04-25T12:20:58;6.31;75.39
65291;SHT30;51893;59.754;10.110;2023-04-25T12:23:27;6.44;75.99
65291;SHT30;51893;59.754;10.110;2023-04-25T12:25:56;6.53;74.65
65291;SHT30;51893;59.754;10.110;2023-04-25T12:28:25;6.51;72.89
65291;SHT30;51893;59.754;10.110;2023-04-25T12:31:00;6.42;72.55
65291;SHT30;51893;59.754;10.110;2023-04-25T12:33:38;6.41;72.77
65291;SHT30;51893;59.754;10.110;2023-04-25T12:36:07;6.38;72.17
65291;SHT30;51893;59.754;10.110;2023-04-25T12:38:38;6.35;72.66
65291;SHT30;51893;59.754;10.110;2023-04-25T12:41:09;6.39;72.28
65291;SHT30;51893;59.754;10.110;2023-04-25T12:43:38;6.37;72.16
65291;SHT30;51893;59.754;10.110;2023-04-25T12:46:07;6.45;73.55
65291;SHT30;51893;59.754;10.110;2023-04-25T12:48:36;6.51;72.95
65291;SHT30;51893;59.754;10.110;2023-04-25T12:51:05;6.55;72.84
65291;SHT30;51893;59.754;10.110;2023-04-25T12:53:34;6.56;71.77
65291;SHT30;51893;59.754;10.110;2023-04-25T12:56:07;6.42;69.67
65291;SHT30;51893;59.754;10.110;2023-04-25T12:58:36;6.32;70.55
65291;SHT30;51893;59.754;10.110;2023-04-25T13:01:04;6.26;70.50
65291;SHT30;51893;59.754;10.110;2023-04-25T13:03:32;6.17;70.57
65291;SHT30;51893;59.754;10.110;2023-04-25T13:06:03;6.15;70.62
65291;SHT30;51893;59.754;10.110;2023-04-25T13:08:32;6.13;71.10
65291;SHT30;51893;59.754;10.110;2023-04-25T13:11:00;6.15;71.61
65291;SHT30;51893;59.754;10.110;2023-04-25T13:13:28;6.18;71.91
65291;SHT30;51893;59.754;10.110;2023-04-25T13:15:58;6.16;70.35
65291;SHT30;51893;59.754;10.110;2023-04-25T13:18:29;6.18;71.19
65291;SHT30;51893;59.754;10.110;2023-04-25T13:20:58;6.24;71.46
65291;SHT30;51893;59.754;10.110;2023-04-25T13:23:29;6.22;70.84
65291;SHT30;51893;59.754;10.110;2023-04-25T13:25:58;6.17;70.89
65291;SHT30;51893;59.754;10.110;2023-04-25T13:28:33;6.20;71.24
65291;SHT30;51893;59.754;10.110;2023-04-25T13:31:01;6.23;70.87
65291;SHT30;51893;59.754;10.110;2023-04-25T13:33:29;6.28;71.06
65291;SHT30;51893;59.754;10.110;2023-04-25T13:35:57;6.44;71.08
65291;SHT30;51893;59.754;10.110;2023-04-25T13:38:25;6.57;70.71
65291;SHT30;51893;59.754;10.110;2023-04-25T13:40:53;6.59;70.33
65291;SHT30;51893;59.754;10.110;2023-04-25T13:43:21;6.66;70.63
65291;SHT30;51893;59.754;10.110;2023-04-25T13:45:50;6.75;70.71
65291;SHT30;51893;59.754;10.110;2023-04-25T13:48:19;6.76;68.58
65291;SHT30;51893;59.754;10.110;2023-04-25T13:50:47;6.81;69.23
65291;SHT30;51893;59.754;10.110;2023-04-25T13:53:15;6.85;67.87
65291;SHT30;51893;59.754;10.110;2023-04-25T13:55:43;6.82;68.67
65291;SHT30;51893;59.754;10.110;2023-04-25T13:58:13;6.98;69.28
65291;SHT30;51893;59.754;10.110;2023-04-25T14:00:41;6.97;68.26
65291;SHT30;51893;59.754;10.110;2023-04-25T14:03:10;7.05;69.11
65291;SHT30;51893;59.754;10.110;2023-04-25T14:05:38;7.06;67.49
65291;SHT30;51893;59.754;10.110;2023-04-25T14:08:08;7.01;67.10
65291;SHT30;51893;59.754;10.110;2023-04-25T14:10:42;7.07;67.98
65291;SHT30;51893;59.754;10.110;2023-04-25T14:13:12;7.17;68.36
65291;SHT30;51893;59.754;10.110;2023-04-25T14:15:49;7.25;68.28
65291;SHT30;51893;59.754;10.110;2023-04-25T14:18:20;7.25;66.99
65291;SHT30;51893;59.754;10.110;2023-04-25T14:20:49;7.27;67.40
65291;SHT30;51893;59.754;10.110;2023-04-25T14:23:18;7.41;68.26
65291;SHT30;51893;59.754;10.110;2023-04-25T14:25:47;7.62;68.89
65291;SHT30;51893;59.754;10.110;2023-04-25T14:28:16;7.66;67.06
65291;SHT30;51893;59.754;10.110;2023-04-25T14:30:45;7.66;66.78
65291;SHT30;51893;59.754;10.110;2023-04-25T14:33:13;7.63;66.47
65291;SHT30;51893;59.754;10.110;2023-04-25T14:35:42;7.35;65.05
65291;SHT30;51893;59.754;10.110;2023-04-25T14:38:13;7.23;66.04
65291;SHT30;51893;59.754;10.110;2023-04-25T14:40:43;7.11;65.24
65291;SHT30;51893;59.754;10.110;2023-04-25T14:43:12;7.07;66.46
65291;SHT30;51893;59.754;10.110;2023-04-25T14:45:41;7.03;65.93
65291;SHT30;51893;59.754;10.110;2023-04-25T14:48:09;7.00;66.00
65291;SHT30;51893;59.754;10.110;2023-04-25T14:50:37;6.97;66.41
65291;SHT30;51893;59.754;10.110;2023-04-25T14:53:06;6.94;65.68
65291;SHT30;51893;59.754;10.110;2023-04-25T14:55:35;6.86;65.40
65291;SHT30;51893;59.754;10.110;2023-04-25T14:58:03;6.81;65.24
65291;SHT30;51893;59.754;10.110;2023-04-25T15:00:36;6.78;66.02
65291;SHT30;51893;59.754;10.110;2023-04-25T15:03:05;6.80;65.98
65291;SHT30;51893;59.754;10.110;2023-04-25T15:05:33;6.81;66.07
65291;SHT30;51893;59.754;10.110;2023-04-25T15:08:08;6.85;66.46
65291;SHT30;51893;59.754;10.110;2023-04-25T15:10:38;6.77;65.88
65291;SHT30;51893;59.754;10.110;2023-04-25T15:13:07;6.75;65.80
65291;SHT30;51893;59.754;10.110;2023-04-25T15:15:39;6.74;65.63
65291;SHT30;51893;59.754;10.110;2023-04-25T15:18:07;6.74;66.16
65291;SHT30;51893;59.754;10.110;2023-04-25T15:20:36;6.70;65.51
65291;SHT30;51893;59.754;10.110;2023-04-25T15:23:08;6.67;65.40
65291;SHT30;51893;59.754;10.110;2023-04-25T15:25:37;6.62;65.37
65291;SHT30;51893;59.754;10.110;2023-04-25T15:28:05;6.64;65.56
65291;SHT30;51893;59.754;10.110;2023-04-25T15:30:34;6.63;65.62
65291;SHT30;51893;59.754;10.110;2023-04-25T15:33:06;6.60;65.45
65291;SHT30;51893;59.754;10.110;2023-04-25T15:35:34;6.58;65.91
65291;SHT30;51893;59.754;10.110;2023-04-25T15:38:03;6.64;66.75
65291;SHT30;51893;59.754;10.110;2023-04-25T15:40:32;6.65;65.84
65291;SHT30;51893;59.754;10.110;2023-04-25T15:43:01;6.61;65.92
65291;SHT30;51893;59.754;10.110;2023-04-25T15:45:33;6.62;66.35
65291;SHT30;51893;59.754;10.110;2023-04-25T15:48:03;6.57;65.54
65291;SHT30;51893;59.754;10.110;2023-04-25T15:50:34;6.53;65.96